sensor_id;sensor_type;location;lat;lon;timestamp;temperature;humidity
43183;DHT22;28802;38.578;-0.066;2023-04-06T00:01:10;11.40;99.90
43183;DHT22;28802;38.578;-0.066;2023-04-06T00:03:37;11.30;99.90
43183;DHT22;28802;38.578;-0.066;2023-04-06T00:06:03;11.40;99.90
43183;DHT22;28802;38.578;-0.066;2023-04-06T00:08:29;11.30;99.90
43183;DHT22;28802;38.578;-0.066;2023-04-06T00:10:56;11.20;99.90
43183;DHT22;28802;38.578;-0.066;2023-04-06T00:13:21;11.10;99.90
43183;DHT22;28802;38.578;-0.066;2023-04-06T00:15:47;11.20;99.90
43183;DHT22;28802;38.578;-0.066;2023-04-06T00:18:13;11.30;99.90
43183;DHT22;28802;38.578;-0.066;2023-04-06T00:20:39;11.30;99.90
43183;DHT22;28802;38.578;-0.066;2023-04-06T00:23:05;11.30;99.90
43183;DHT22;28802;38.578;-0.066;2023-04-06T00:25:31;11.20;99.90
43183;DHT22;28802;38.578;-0.066;2023-04-06T00:27:58;11.20;99.90
43183;DHT22;28802;38.578;-0.066;2023-04-06T00:30:24;11.10;99.90
43183;DHT22;28802;38.578;-0.066;2023-04-06T00:32:50;11.20;99.90
43183;DHT22;28802;38.578;-0.066;2023-04-06T00:35:16;11.20;99.90
43183;DHT22;28802;38.578;-0.066;2023-04-06T00:37:42;11.20;99.90
43183;DHT22;28802;38.578;-0.066;2023-04-06T00:40:08;10.90;99.90
43183;DHT22;28802;38.578;-0.066;2023-04-06T00:42:34;10.90;99.90
43183;DHT22;28802;38.578;-0.066;2023-04-06T00:45:02;10.90;99.90
43183;DHT22;28802;38.578;-0.066;2023-04-06T00:47:28;10.80;99.90
43183;DHT22;28802;38.578;-0.066;2023-04-06T00:49:54;10.80;99.90
43183;DHT22;28802;38.578;-0.066;2023-04-06T00:52:20;10.80;99.90
43183;DHT22;28802;38.578;-0.066;2023-04-06T00:54:49;10.90;99.90
43183;DHT22;28802;38.578;-0.066;2023-04-06T00:57:17;11.00;99.90
43183;DHT22;28802;38.578;-0.066;2023-04-06T00:59:45;11.10;99.90
43183;DHT22;28802;38.578;-0.066;2023-04-06T01:02:12;11.10;99.90
43183;DHT22;28802;38.578;-0.066;2023-04-06T01:04:44;11.20;99.90
43183;DHT22;28802;38.578;-0.066;2023-04-06T01:07:19;11.20;99.90
43183;DHT22;28802;38.578;-0.066;2023-04-06T01:09:59;11.00;99.90
43183;DHT22;28802;38.578;-0.066;2023-04-06T01:12:27;10.70;99.90
43183;DHT22;28802;38.578;-0.066;2023-04-06T01:14:53;10.70;99.90
43183;DHT22;28802;38.578;-0.066;2023-04-06T01:17:20;10.70;99.90
43183;DHT22;28802;38.578;-0.066;2023-04-06T01:19:46;10.80;99.90
43183;DHT22;28802;38.578;-0.066;2023-04-06T01:22:21;10.80;99.90
43183;DHT22;28802;38.578;-0.066;2023-04-06T01:24:56;10.80;99.90
43183;DHT22;28802;38.578;-0.066;2023-04-06T01:27:28;10.70;99.90
43183;DHT22;28802;38.578;-0.066;2023-04-06T01:30:18;10.50;99.90
43183;DHT22;28802;38.578;-0.066;2023-04-06T01:32:51;10.40;99.90
43183;DHT22;28802;38.578;-0.066;2023-04-06T01:35:30;10.40;99.90
43183;DHT22;28802;38.578;-0.066;2023-04-06T01:38:12;10.40;99.90
43183;DHT22;28802;38.578;-0.066;2023-04-06T01:40:38;10.30;99.90
43183;DHT22;28802;38.578;-0.066;2023-04-06T01:43:05;10.30;99.90
43183;DHT22;28802;38.578;-0.066;2023-04-06T01:45:45;10.30;99.90
43183;DHT22;28802;38.578;-0.066;2023-04-06T01:48:16;10.30;99.90
43183;DHT22;28802;38.578;-0.066;2023-04-06T01:50:42;10.20;99.90
43183;DHT22;28802;38.578;-0.066;2023-04-06T01:53:12;10.20;99.90
43183;DHT22;28802;38.578;-0.066;2023-04-06T01:55:40;10.20;99.90
43183;DHT22;28802;38.578;-0.066;2023-04-06T01:58:21;10.30;99.90
43183;DHT22;28802;38.578;-0.066;2023-04-06T02:00:47;10.40;99.90
43183;DHT22;28802;38.578;-0.066;2023-04-06T02:03:13;10.40;99.90
43183;DHT22;28802;38.578;-0.066;2023-04-06T02:05:41;10.40;99.90
43183;DHT22;28802;38.578;-0.066;2023-04-06T02:08:23;10.30;99.90
43183;DHT22;28802;38.578;-0.066;2023-04-06T02:10:49;10.20;99.90
43183;DHT22;28802;38.578;-0.066;2023-04-06T02:13:24;10.10;99.90
43183;DHT22;28802;38.578;-0.066;2023-04-06T02:15:52;10.10;99.90
43183;DHT22;28802;38.578;-0.066;2023-04-06T02:18:19;10.20;99.90
43183;DHT22;28802;38.578;-0.066;2023-04-06T02:20:47;10.30;99.90
43183;DHT22;28802;38.578;-0.066;2023-04-06T02:23:13;10.20;99.90
43183;DHT22;28802;38.578;-0.066;2023-04-06T02:25:39;10.20;99.90
43183;DHT22;28802;38.578;-0.066;2023-04-06T02:28:05;10.20;99.90
43183;DHT22;28802;38.578;-0.066;2023-04-06T02:30:31;10.30;99.90
43183;DHT22;28802;38.578;-0.066;2023-04-06T02:33:00;10.10;99.90
43183;DHT22;28802;38.578;-0.066;2023-04-06T02:35:31;10.00;99.90
43183;DHT22;28802;38.578;-0.066;2023-04-06T02:37:57;10.10;99.90
43183;DHT22;28802;38.578;-0.066;2023-04-06T02:40:23;10.20;99.90
43183;DHT22;28802;38.578;-0.066;2023-04-06T02:42:49;10.20;99.90
43183;DHT22;28802;38.578;-0.066;2023-04-06T02:45:20;10.20;99.90
43183;DHT22;28802;38.578;-0.066;2023-04-06T02:47:47;10.30;99.90
43183;DHT22;28802;38.578;-0.066;2023-04-06T02:50:15;10.30;99.90
43183;DHT22;28802;38.578;-0.066;2023-04-06T02:52:49;10.30;99.90
43183;DHT22;28802;38.578;-0.066;2023-04-06T02:55:15;10.30;99.90
43183;DHT22;28802;38.578;-0.066;2023-04-06T02:57:41;10.20;99.90
43183;DHT22;28802;38.578;-0.066;2023-04-06T03:00:08;10.30;99.90
43183;DHT22;28802;38.578;-0.066;2023-04-06T03:02:38;10.40;99.90
43183;DHT22;28802;38.578;-0.066;2023-04-06T03:05:08;10.30;99.90
43183;DHT22;28802;38.578;-0.066;2023-04-06T03:07:39;10.20;99.90
43183;DHT22;28802;38.578;-0.066;2023-04-06T03:10:08;10.20;99.90
43183;DHT22;28802;38.578;-0.066;2023-04-06T03:12:35;10.10;99.90
43183;DHT22;28802;38.578;-0.066;2023-04-06T03:15:14;10.10;99.90
43183;DHT22;28802;38.578;-0.066;2023-04-06T03:17:45;10.00;99.90
43183;DHT22;28802;38.578;-0.066;2023-04-06T03:20:21;9.90;99.90
43183;DHT22;28802;38.578;-0.066;2023-04-06T03:22:47;10.00;99.90
43183;DHT22;28802;38.578;-0.066;2023-04-06T03:25:15;10.00;99.90
43183;DHT22;28802;38.578;-0.066;2023-04-06T03:27:44;10.00;99.90
43183;DHT22;28802;38.578;-0.066;2023-04-06T03:30:13;10.00;99.90
43183;DHT22;28802;38.578;-0.066;2023-04-06T03:32:41;10.00;99.90
43183;DHT22;28802;38.578;-0.066;2023-04-06T03:35:08;10.00;99.90
43183;DHT22;28802;38.578;-0.066;2023-04-06T03:37:34;10.00;99.90
43183;DHT22;28802;38.578;-0.066;2023-04-06T03:40:03;9.90;99.90
43183;DHT22;28802;38.578;-0.066;2023-04-06T03:42:29;9.80;99.90
43183;DHT22;28802;38.578;-0.066;2023-04-06T03:45:01;9.70;99.90
43183;DHT22;28802;38.578;-0.066;2023-04-06T03:47:27;9.80;99.90
43183;DHT22;28802;38.578;-0.066;2023-04-06T03:49:58;9.70;99.90
43183;DHT22;28802;38.578;-0.066;2023-04-06T03:52:24;9.70;99.90
43183;DHT22;28802;38.578;-0.066;2023-04-06T03:54:51;9.70;99.90
43183;DHT22;28802;38.578;-0.066;2023-04-06T03:57:17;9.60;99.90
43183;DHT22;28802;38.578;-0.066;2023-04-06T03:59:43;9.50;99.90
43183;DHT22;28802;38.578;-0.066;2023-04-06T04:02:09;9.60;99.90
43183;DHT22;28802;38.578;-0.066;2023-04-06T04:04:35;9.70;99.90
43183;DHT22;28802;38.578;-0.066;2023-04-06T04:07:01;9.70;99.90
43183;DHT22;28802;38.578;-0.066;2023-04-06T04:09:27;9.60;99.90
43183;DHT22;28802;38.578;-0.066;2023-04-06T04:11:53;9.50;99.90
43183;DHT22;28802;38.578;-0.066;2023-04-06T04:14:21;9.60;99.90
43183;DHT22;28802;38.578;-0.066;2023-04-06T04:16:47;9.80;99.90
43183;DHT22;28802;38.578;-0.066;2023-04-06T04:19:13;9.90;99.90
43183;DHT22;28802;38.578;-0.066;2023-04-06T04:21:43;9.90;99.90
43183;DHT22;28802;38.578;-0.066;2023-04-06T04:24:16;9.90;99.90
43183;DHT22;28802;38.578;-0.066;2023-04-06T04:26:42;9.70;99.90
43183;DHT22;28802;38.578;-0.066;2023-04-06T04:29:09;9.60;99.90
43183;DHT22;28802;38.578;-0.066;2023-04-06T04:31:36;9.50;99.90
43183;DHT22;28802;38.578;-0.066;2023-04-06T04:34:06;9.50;99.90
43183;DHT22;28802;38.578;-0.066;2023-04-06T04:36:33;9.50;99.90
43183;DHT22;28802;38.578;-0.066;2023-04-06T04:39:03;9.50;99.90
43183;DHT22;28802;38.578;-0.066;2023-04-06T04:41:34;9.40;99.90
43183;DHT22;28802;38.578;-0.066;2023-04-06T04:44:01;9.50;99.90
43183;DHT22;28802;38.578;-0.066;2023-04-06T04:46:27;9.60;99.90
43183;DHT22;28802;38.578;-0.066;2023-04-06T04:48:54;9.60;99.90
43183;DHT22;28802;38.578;-0.066;2023-04-06T04:51:20;9.50;99.90
43183;DHT22;28802;38.578;-0.066;2023-04-06T04:54:12;9.40;99.90
43183;DHT22;28802;38.578;-0.066;2023-04-06T04:56:39;9.50;99.90
43183;DHT22;28802;38.578;-0.066;2023-04-06T04:59:16;9.40;99.90
43183;DHT22;28802;38.578;-0.066;2023-04-06T05:01:49;9.50;99.90
43183;DHT22;28802;38.578;-0.066;2023-04-06T05:04:15;9.50;99.90
43183;DHT22;28802;38.578;-0.066;2023-04-06T05:06:42;9.40;99.90
43183;DHT22;28802;38.578;-0.066;2023-04-06T05:09:08;9.30;99.90
43183;DHT22;28802;38.578;-0.066;2023-04-06T05:11:35;9.20;99.90
43183;DHT22;28802;38.578;-0.066;2023-04-06T05:14:01;9.40;99.90
43183;DHT22;28802;38.578;-0.066;2023-04-06T05:16:27;9.40;99.90
43183;DHT22;28802;38.578;-0.066;2023-04-06T05:18:53;9.40;99.90
43183;DHT22;28802;38.578;-0.066;2023-04-06T05:21:23;9.40;99.90
43183;DHT22;28802;38.578;-0.066;2023-04-06T05:23:58;9.40;99.90
43183;DHT22;28802;38.578;-0.066;2023-04-06T05:26:24;9.40;99.90
43183;DHT22;28802;38.578;-0.066;2023-04-06T05:28:54;9.40;99.90
43183;DHT22;28802;38.578;-0.066;2023-04-06T05:31:21;9.30;99.90
43183;DHT22;28802;38.578;-0.066;2023-04-06T05:33:53;9.30;99.90
43183;DHT22;28802;38.578;-0.066;2023-04-06T05:36:34;9.30;99.90
43183;DHT22;28802;38.578;-0.066;2023-04-06T05:39:06;9.30;99.90
43183;DHT22;28802;38.578;-0.066;2023-04-06T05:41:42;9.10;99.90
43183;DHT22;28802;38.578;-0.066;2023-04-06T05:44:11;9.20;99.90
43183;DHT22;28802;38.578;-0.066;2023-04-06T05:46:40;9.30;99.90
43183;DHT22;28802;38.578;-0.066;2023-04-06T05:49:10;9.50;99.90
43183;DHT22;28802;38.578;-0.066;2023-04-06T05:51:36;9.90;99.90
43183;DHT22;28802;38.578;-0.066;2023-04-06T05:54:03;10.30;99.90
43183;DHT22;28802;38.578;-0.066;2023-04-06T05:56:29;10.60;99.90
43183;DHT22;28802;38.578;-0.066;2023-04-06T05:58:57;10.90;99.90
43183;DHT22;28802;38.578;-0.066;2023-04-06T06:01:27;11.10;99.90
43183;DHT22;28802;38.578;-0.066;2023-04-06T06:03:53;11.50;99.90
43183;DHT22;28802;38.578;-0.066;2023-04-06T06:06:20;11.80;99.90
43183;DHT22;28802;38.578;-0.066;2023-04-06T06:09:13;12.30;99.90
43183;DHT22;28802;38.578;-0.066;2023-04-06T06:11:45;12.80;99.90
43183;DHT22;28802;38.578;-0.066;2023-04-06T06:14:14;13.10;99.90
43183;DHT22;28802;38.578;-0.066;2023-04-06T06:16:42;13.80;99.90
43183;DHT22;28802;38.578;-0.066;2023-04-06T06:19:11;14.50;99.90
43183;DHT22;28802;38.578;-0.066;2023-04-06T06:21:41;14.90;99.90
43183;DHT22;28802;38.578;-0.066;2023-04-06T06:24:07;15.50;99.90
43183;DHT22;28802;38.578;-0.066;2023-04-06T06:26:34;15.80;99.90
43183;DHT22;28802;38.578;-0.066;2023-04-06T06:29:03;16.30;99.90
43183;DHT22;28802;38.578;-0.066;2023-04-06T06:31:36;16.30;99.90
43183;DHT22;28802;38.578;-0.066;2023-04-06T06:34:03;16.50;99.90
43183;DHT22;28802;38.578;-0.066;2023-04-06T06:36:31;17.00;99.90
43183;DHT22;28802;38.578;-0.066;2023-04-06T06:38:57;17.40;99.90
43183;DHT22;28802;38.578;-0.066;2023-04-06T06:41:25;18.10;99.90
43183;DHT22;28802;38.578;-0.066;2023-04-06T06:43:52;18.50;99.90
43183;DHT22;28802;38.578;-0.066;2023-04-06T06:46:18;18.90;99.90
43183;DHT22;28802;38.578;-0.066;2023-04-06T06:48:44;19.80;99.90
43183;DHT22;28802;38.578;-0.066;2023-04-06T06:51:10;20.50;99.90
43183;DHT22;28802;38.578;-0.066;2023-04-06T06:53:39;21.10;99.90
43183;DHT22;28802;38.578;-0.066;2023-04-06T06:56:06;21.60;99.90
43183;DHT22;28802;38.578;-0.066;2023-04-06T06:58:33;21.90;99.90
43183;DHT22;28802;38.578;-0.066;2023-04-06T07:00:59;22.40;99.90
43183;DHT22;28802;38.578;-0.066;2023-04-06T07:03:28;22.70;99.90
43183;DHT22;28802;38.578;-0.066;2023-04-06T07:05:55;22.70;99.90
43183;DHT22;28802;38.578;-0.066;2023-04-06T07:08:24;23.20;99.90
43183;DHT22;28802;38.578;-0.066;2023-04-06T07:10:53;23.70;99.90
43183;DHT22;28802;38.578;-0.066;2023-04-06T07:13:23;24.00;99.90
43183;DHT22;28802;38.578;-0.066;2023-04-06T07:15:51;24.40;99.90
43183;DHT22;28802;38.578;-0.066;2023-04-06T07:18:20;24.60;99.90
43183;DHT22;28802;38.578;-0.066;2023-04-06T07:20:47;24.80;99.90
43183;DHT22;28802;38.578;-0.066;2023-04-06T07:23:14;24.70;99.90
43183;DHT22;28802;38.578;-0.066;2023-04-06T07:25:41;25.10;99.90
43183;DHT22;28802;38.578;-0.066;2023-04-06T07:28:09;25.40;99.90
43183;DHT22;28802;38.578;-0.066;2023-04-06T07:30:37;25.80;99.90
43183;DHT22;28802;38.578;-0.066;2023-04-06T07:33:03;25.60;99.90
43183;DHT22;28802;38.578;-0.066;2023-04-06T07:35:30;25.80;99.90
43183;DHT22;28802;38.578;-0.066;2023-04-06T07:37:57;24.60;99.90
43183;DHT22;28802;38.578;-0.066;2023-04-06T07:40:23;24.60;99.90
43183;DHT22;28802;38.578;-0.066;2023-04-06T07:42:50;25.20;99.90
43183;DHT22;28802;38.578;-0.066;2023-04-06T07:45:18;23.90;99.90
43183;DHT22;28802;38.578;-0.066;2023-04-06T07:47:45;22.80;99.90
43183;DHT22;28802;38.578;-0.066;2023-04-06T07:50:12;21.80;99.90
43183;DHT22;28802;38.578;-0.066;2023-04-06T07:52:39;21.40;99.90
43183;DHT22;28802;38.578;-0.066;2023-04-06T07:55:07;21.20;99.90
43183;DHT22;28802;38.578;-0.066;2023-04-06T07:57:34;20.40;99.90
43183;DHT22;28802;38.578;-0.066;2023-04-06T08:00:01;19.10;99.90
43183;DHT22;28802;38.578;-0.066;2023-04-06T08:02:49;18.80;99.90
43183;DHT22;28802;38.578;-0.066;2023-04-06T08:05:19;18.40;99.90
43183;DHT22;28802;38.578;-0.066;2023-04-06T08:07:45;18.20;99.90
43183;DHT22;28802;38.578;-0.066;2023-04-06T08:10:11;18.60;99.90
43183;DHT22;28802;38.578;-0.066;2023-04-06T08:12:37;18.70;99.90
43183;DHT22;28802;38.578;-0.066;2023-04-06T08:15:03;18.60;99.90
43183;DHT22;28802;38.578;-0.066;2023-04-06T08:17:31;19.10;99.90
43183;DHT22;28802;38.578;-0.066;2023-04-06T08:19:58;19.30;99.90
43183;DHT22;28802;38.578;-0.066;2023-04-06T08:22:24;19.50;99.90
43183;DHT22;28802;38.578;-0.066;2023-04-06T08:24:51;19.80;99.90
43183;DHT22;28802;38.578;-0.066;2023-04-06T08:27:17;19.70;99.90
43183;DHT22;28802;38.578;-0.066;2023-04-06T08:29:43;19.60;99.90
43183;DHT22;28802;38.578;-0.066;2023-04-06T08:32:09;19.40;99.90
43183;DHT22;28802;38.578;-0.066;2023-04-06T08:34:36;19.00;99.90
43183;DHT22;28802;38.578;-0.066;2023-04-06T08:37:04;18.90;99.90
43183;DHT22;28802;38.578;-0.066;2023-04-06T08:39:31;18.40;99.90
43183;DHT22;28802;38.578;-0.066;2023-04-06T08:41:59;17.50;99.90
43183;DHT22;28802;38.578;-0.066;2023-04-06T08:44:29;17.80;99.90
43183;DHT22;28802;38.578;-0.066;2023-04-06T08:46:56;18.00;99.90
43183;DHT22;28802;38.578;-0.066;2023-04-06T08:49:22;18.50;99.90
43183;DHT22;28802;38.578;-0.066;2023-04-06T08:51:49;18.60;99.90
43183;DHT22;28802;38.578;-0.066;2023-04-06T08:54:15;18.40;99.90
43183;DHT22;28802;38.578;-0.066;2023-04-06T08:56:41;18.60;99.90
43183;DHT22;28802;38.578;-0.066;2023-04-06T08:59:09;18.40;99.90
43183;DHT22;28802;38.578;-0.066;2023-04-06T09:01:40;18.40;99.90
43183;DHT22;28802;38.578;-0.066;2023-04-06T09:04:10;18.00;99.90
43183;DHT22;28802;38.578;-0.066;2023-04-06T09:06:37;17.80;99.90
43183;DHT22;28802;38.578;-0.066;2023-04-06T09:09:03;17.60;99.90
43183;DHT22;28802;38.578;-0.066;2023-04-06T09:11:42;17.50;99.90
43183;DHT22;28802;38.578;-0.066;2023-04-06T09:14:08;17.70;99.90
43183;DHT22;28802;38.578;-0.066;2023-04-06T09:16:39;18.20;99.90
43183;DHT22;28802;38.578;-0.066;2023-04-06T09:19:06;17.90;99.90
43183;DHT22;28802;38.578;-0.066;2023-04-06T09:21:32;17.90;99.90
43183;DHT22;28802;38.578;-0.066;2023-04-06T09:24:00;18.10;99.90
43183;DHT22;28802;38.578;-0.066;2023-04-06T09:26:26;18.10;99.90
43183;DHT22;28802;38.578;-0.066;2023-04-06T09:28:56;17.70;99.90
43183;DHT22;28802;38.578;-0.066;2023-04-06T09:33:50;17.60;99.90
43183;DHT22;28802;38.578;-0.066;2023-04-06T09:36:17;17.50;99.90
43183;DHT22;28802;38.578;-0.066;2023-04-06T09:39:03;17.70;99.90
43183;DHT22;28802;38.578;-0.066;2023-04-06T09:41:30;18.10;99.90
43183;DHT22;28802;38.578;-0.066;2023-04-06T09:46:32;18.40;99.90
43183;DHT22;28802;38.578;-0.066;2023-04-06T09:49:03;17.90;99.90
43183;DHT22;28802;38.578;-0.066;2023-04-06T09:54:01;17.10;99.90
43183;DHT22;28802;38.578;-0.066;2023-04-06T09:57:01;17.60;99.90
43183;DHT22;28802;38.578;-0.066;2023-04-06T10:02:18;20.20;99.90
43183;DHT22;28802;38.578;-0.066;2023-04-06T10:05:55;20.70;99.90
43183;DHT22;28802;38.578;-0.066;2023-04-06T10:08:06;21.20;99.90
43183;DHT22;28802;38.578;-0.066;2023-04-06T10:10:33;21.60;99.90
43183;DHT22;28802;38.578;-0.066;2023-04-06T10:13:00;21.50;99.90
43183;DHT22;28802;38.578;-0.066;2023-04-06T10:15:30;20.90;99.90
43183;DHT22;28802;38.578;-0.066;2023-04-06T10:17:58;20.80;99.90
43183;DHT22;28802;38.578;-0.066;2023-04-06T10:23:12;20.70;99.90
43183;DHT22;28802;38.578;-0.066;2023-04-06T10:25:58;20.70;99.90
43183;DHT22;28802;38.578;-0.066;2023-04-06T10:28:35;21.30;99.90
43183;DHT22;28802;38.578;-0.066;2023-04-06T10:31:07;20.70;99.90
43183;DHT22;28802;38.578;-0.066;2023-04-06T10:33:33;20.50;99.90
43183;DHT22;28802;38.578;-0.066;2023-04-06T10:36:14;20.40;99.90
43183;DHT22;28802;38.578;-0.066;2023-04-06T10:38:42;21.20;99.90
43183;DHT22;28802;38.578;-0.066;2023-04-06T10:41:11;20.40;99.90
43183;DHT22;28802;38.578;-0.066;2023-04-06T10:43:39;19.40;99.90
43183;DHT22;28802;38.578;-0.066;2023-04-06T10:46:06;18.80;99.90
43183;DHT22;28802;38.578;-0.066;2023-04-06T10:48:51;18.80;99.90
43183;DHT22;28802;38.578;-0.066;2023-04-06T10:51:18;18.70;99.90
43183;DHT22;28802;38.578;-0.066;2023-04-06T10:53:46;19.40;99.90
43183;DHT22;28802;38.578;-0.066;2023-04-06T10:56:24;19.70;99.90
43183;DHT22;28802;38.578;-0.066;2023-04-06T10:58:56;19.80;99.90
43183;DHT22;28802;38.578;-0.066;2023-04-06T11:01:24;20.60;99.90
43183;DHT22;28802;38.578;-0.066;2023-04-06T11:03:56;20.90;99.90
43183;DHT22;28802;38.578;-0.066;2023-04-06T11:06:28;21.00;99.90
43183;DHT22;28802;38.578;-0.066;2023-04-06T11:08:55;21.10;99.90
43183;DHT22;28802;38.578;-0.066;2023-04-06T11:11:24;21.00;99.90
43183;DHT22;28802;38.578;-0.066;2023-04-06T11:13:54;20.70;99.90
43183;DHT22;28802;38.578;-0.066;2023-04-06T11:19:05;20.90;99.90
43183;DHT22;28802;38.578;-0.066;2023-04-06T11:21:43;19.90;99.90
43183;DHT22;28802;38.578;-0.066;2023-04-06T11:24:20;20.00;99.90
43183;DHT22;28802;38.578;-0.066;2023-04-06T11:26:57;21.00;99.90
43183;DHT22;28802;38.578;-0.066;2023-04-06T11:29:30;21.30;99.90
43183;DHT22;28802;38.578;-0.066;2023-04-06T11:31:59;22.30;99.90
43183;DHT22;28802;38.578;-0.066;2023-04-06T11:34:27;20.80;99.90
43183;DHT22;28802;38.578;-0.066;2023-04-06T11:36:55;20.20;99.90
43183;DHT22;28802;38.578;-0.066;2023-04-06T11:39:26;20.20;99.90
43183;DHT22;28802;38.578;-0.066;2023-04-06T11:41:54;20.40;99.90
43183;DHT22;28802;38.578;-0.066;2023-04-06T11:44:43;20.80;99.90
43183;DHT22;28802;38.578;-0.066;2023-04-06T11:47:12;20.90;99.90
43183;DHT22;28802;38.578;-0.066;2023-04-06T11:49:40;20.60;99.90
43183;DHT22;28802;38.578;-0.066;2023-04-06T11:52:21;20.60;99.90
43183;DHT22;28802;38.578;-0.066;2023-04-06T11:54:49;20.30;99.90
43183;DHT22;28802;38.578;-0.066;2023-04-06T11:57:17;19.80;99.90
43183;DHT22;28802;38.578;-0.066;2023-04-06T11:59:43;19.20;99.90
43183;DHT22;28802;38.578;-0.066;2023-04-06T12:02:13;19.20;99.90
43183;DHT22;28802;38.578;-0.066;2023-04-06T12:04:44;19.20;99.90
43183;DHT22;28802;38.578;-0.066;2023-04-06T12:07:11;19.80;99.90
43183;DHT22;28802;38.578;-0.066;2023-04-06T12:09:37;19.70;99.90
43183;DHT22;28802;38.578;-0.066;2023-04-06T12:12:04;19.50;99.90
43183;DHT22;28802;38.578;-0.066;2023-04-06T12:14:30;20.10;99.90
43183;DHT22;28802;38.578;-0.066;2023-04-06T12:16:57;20.30;99.90
43183;DHT22;28802;38.578;-0.066;2023-04-06T12:19:23;20.90;99.90
43183;DHT22;28802;38.578;-0.066;2023-04-06T12:21:53;20.70;99.90
43183;DHT22;28802;38.578;-0.066;2023-04-06T12:24:20;20.10;99.90
43183;DHT22;28802;38.578;-0.066;2023-04-06T12:26:46;19.00;99.90
43183;DHT22;28802;38.578;-0.066;2023-04-06T12:29:12;19.60;99.90
43183;DHT22;28802;38.578;-0.066;2023-04-06T12:31:39;19.10;99.90
43183;DHT22;28802;38.578;-0.066;2023-04-06T12:34:06;20.00;99.90
43183;DHT22;28802;38.578;-0.066;2023-04-06T12:36:33;20.70;99.90
43183;DHT22;28802;38.578;-0.066;2023-04-06T12:38:59;20.60;99.90
43183;DHT22;28802;38.578;-0.066;2023-04-06T12:41:27;20.00;99.90
43183;DHT22;28802;38.578;-0.066;2023-04-06T12:43:53;19.10;99.90
43183;DHT22;28802;38.578;-0.066;2023-04-06T12:46:20;18.50;99.90
43183;DHT22;28802;38.578;-0.066;2023-04-06T12:48:46;18.60;99.90
43183;DHT22;28802;38.578;-0.066;2023-04-06T12:51:12;18.20;99.90
43183;DHT22;28802;38.578;-0.066;2023-04-06T12:53:38;17.80;99.90
43183;DHT22;28802;38.578;-0.066;2023-04-06T12:56:15;18.10;99.90
43183;DHT22;28802;38.578;-0.066;2023-04-06T12:58:45;18.80;99.90
43183;DHT22;28802;38.578;-0.066;2023-04-06T13:01:11;18.80;99.90
43183;DHT22;28802;38.578;-0.066;2023-04-06T13:03:39;18.70;99.90
43183;DHT22;28802;38.578;-0.066;2023-04-06T13:06:05;18.00;99.90
43183;DHT22;28802;38.578;-0.066;2023-04-06T13:08:31;17.90;99.90
43183;DHT22;28802;38.578;-0.066;2023-04-06T13:10:57;17.90;99.90
43183;DHT22;28802;38.578;-0.066;2023-04-06T13:13:25;17.60;99.90
43183;DHT22;28802;38.578;-0.066;2023-04-06T13:15:52;17.70;99.90
43183;DHT22;28802;38.578;-0.066;2023-04-06T13:18:22;17.80;99.90
43183;DHT22;28802;38.578;-0.066;2023-04-06T13:20:49;17.40;99.90
43183;DHT22;28802;38.578;-0.066;2023-04-06T13:23:15;17.70;99.90
43183;DHT22;28802;38.578;-0.066;2023-04-06T13:25:41;17.90;99.90
43183;DHT22;28802;38.578;-0.066;2023-04-06T13:28:08;17.90;99.90
43183;DHT22;28802;38.578;-0.066;2023-04-06T13:30:34;18.00;99.90
43183;DHT22;28802;38.578;-0.066;2023-04-06T13:33:01;17.90;99.90
43183;DHT22;28802;38.578;-0.066;2023-04-06T13:35:27;17.90;99.90
43183;DHT22;28802;38.578;-0.066;2023-04-06T13:37:53;17.90;99.90
43183;DHT22;28802;38.578;-0.066;2023-04-06T13:40:20;17.80;99.90
43183;DHT22;28802;38.578;-0.066;2023-04-06T13:42:47;18.10;99.90
43183;DHT22;28802;38.578;-0.066;2023-04-06T13:45:13;18.10;99.90
43183;DHT22;28802;38.578;-0.066;2023-04-06T13:47:39;17.80;99.90
43183;DHT22;28802;38.578;-0.066;2023-04-06T13:50:06;17.40;99.90
43183;DHT22;28802;38.578;-0.066;2023-04-06T13:52:32;17.30;99.90
43183;DHT22;28802;38.578;-0.066;2023-04-06T13:54:58;17.40;99.90
43183;DHT22;28802;38.578;-0.066;2023-04-06T13:57:24;17.30;99.90
43183;DHT22;28802;38.578;-0.066;2023-04-06T13:59:50;17.30;99.90
43183;DHT22;28802;38.578;-0.066;2023-04-06T14:02:16;17.20;99.90
43183;DHT22;28802;38.578;-0.066;2023-04-06T14:04:43;17.00;99.90
43183;DHT22;28802;38.578;-0.066;2023-04-06T14:07:08;17.20;99.90
43183;DHT22;28802;38.578;-0.066;2023-04-06T14:09:35;17.30;99.90
43183;DHT22;28802;38.578;-0.066;2023-04-06T14:12:01;17.10;99.90
43183;DHT22;28802;38.578;-0.066;2023-04-06T14:14:27;17.40;99.90
43183;DHT22;28802;38.578;-0.066;2023-04-06T14:16:53;17.60;99.90
43183;DHT22;28802;38.578;-0.066;2023-04-06T14:19:23;17.80;99.90
43183;DHT22;28802;38.578;-0.066;2023-04-06T14:21:49;17.70;99.90
43183;DHT22;28802;38.578;-0.066;2023-04-06T14:24:15;17.30;99.90
43183;DHT22;28802;38.578;-0.066;2023-04-06T14:26:41;17.40;99.90
43183;DHT22;28802;38.578;-0.066;2023-04-06T14:29:08;17.30;99.90
43183;DHT22;28802;38.578;-0.066;2023-04-06T14:31:34;17.50;99.90
43183;DHT22;28802;38.578;-0.066;2023-04-06T14:34:02;17.60;99.90
43183;DHT22;28802;38.578;-0.066;2023-04-06T14:36:32;17.70;99.90
43183;DHT22;28802;38.578;-0.066;2023-04-06T14:39:04;17.80;99.90
43183;DHT22;28802;38.578;-0.066;2023-04-06T14:41:31;17.20;99.90
43183;DHT22;28802;38.578;-0.066;2023-04-06T14:43:58;17.50;99.90
43183;DHT22;28802;38.578;-0.066;2023-04-06T14:46:24;17.40;99.90
43183;DHT22;28802;38.578;-0.066;2023-04-06T14:48:51;17.30;99.90
43183;DHT22;28802;38.578;-0.066;2023-04-06T14:51:17;17.40;99.90
43183;DHT22;28802;38.578;-0.066;2023-04-06T14:53:43;17.50;99.90
43183;DHT22;28802;38.578;-0.066;2023-04-06T14:56:09;17.40;99.90
43183;DHT22;28802;38.578;-0.066;2023-04-06T14:58:35;17.20;99.90
43183;DHT22;28802;38.578;-0.066;2023-04-06T15:01:01;17.00;99.90
43183;DHT22;28802;38.578;-0.066;2023-04-06T15:03:28;17.20;99.90
43183;DHT22;28802;38.578;-0.066;2023-04-06T15:05:55;17.00;99.90
43183;DHT22;28802;38.578;-0.066;2023-04-06T15:08:22;16.80;99.90
43183;DHT22;28802;38.578;-0.066;2023-04-06T15:10:49;16.90;99.90
43183;DHT22;28802;38.578;-0.066;2023-04-06T15:13:16;17.00;99.90
43183;DHT22;28802;38.578;-0.066;2023-04-06T15:15:42;17.30;99.90
43183;DHT22;28802;38.578;-0.066;2023-04-06T15:18:09;17.20;99.90
43183;DHT22;28802;38.578;-0.066;2023-04-06T15:20:35;17.00;99.90
43183;DHT22;28802;38.578;-0.066;2023-04-06T15:23:02;16.80;99.90
43183;DHT22;28802;38.578;-0.066;2023-04-06T15:25:29;16.90;99.90
43183;DHT22;28802;38.578;-0.066;2023-04-06T15:27:56;17.00;99.90
43183;DHT22;28802;38.578;-0.066;2023-04-06T15:30:22;17.20;99.90
43183;DHT22;28802;38.578;-0.066;2023-04-06T15:33:01;16.90;99.90
43183;DHT22;28802;38.578;-0.066;2023-04-06T15:35:32;16.90;99.90
43183;DHT22;28802;38.578;-0.066;2023-04-06T15:37:59;17.00;99.90
43183;DHT22;28802;38.578;-0.066;2023-04-06T15:40:27;17.10;99.90
43183;DHT22;28802;38.578;-0.066;2023-04-06T15:42:53;17.10;99.90